sensor_id;sensor_type;location;lat;lon;timestamp;pressure;altitude;pressure_sealevel;temperature;humidity
19795;BME280;10057;59.402;17.866;2023-05-25T00:00:14;101166.75;;;18.73;46.01
19795;BME280;10057;59.402;17.866;2023-05-25T00:02:41;101163.28;;;18.71;46.20
19795;BME280;10057;59.402;17.866;2023-05-25T00:05:10;101164.25;;;18.70;46.30
19795;BME280;10057;59.402;17.866;2023-05-25T00:07:37;101157.06;;;18.70;46.65
19795;BME280;10057;59.402;17.866;2023-05-25T00:10:05;101155.16;;;18.73;46.95
19795;BME280;10057;59.402;17.866;2023-05-25T00:12:32;101161.19;;;18.76;47.16
19795;BME280;10057;59.402;17.866;2023-05-25T00:14:59;101162.28;;;18.74;47.52
19795;BME280;10057;59.402;17.866;2023-05-25T00:17:26;101161.00;;;18.65;47.84
19795;BME280;10057;59.402;17.866;2023-05-25T00:19:55;101168.78;;;18.55;48.20
19795;BME280;10057;59.402;17.866;2023-05-25T00:22:23;101165.81;;;18.45;48.40
19795;BME280;10057;59.402;17.866;2023-05-25T00:24:54;101168.91;;;18.39;48.45
19795;BME280;10057;59.402;17.866;2023-05-25T00:27:21;101159.88;;;18.40;48.46
19795;BME280;10057;59.402;17.866;2023-05-25T00:29:48;101167.09;;;18.40;48.50
19795;BME280;10057;59.402;17.866;2023-05-25T00:32:15;101163.31;;;18.42;48.56
19795;BME280;10057;59.402;17.866;2023-05-25T00:34:41;101167.16;;;18.38;48.75
19795;BME280;10057;59.402;17.866;2023-05-25T00:37:08;101161.31;;;18.32;48.84
19795;BME280;10057;59.402;17.866;2023-05-25T00:39:35;101157.03;;;18.29;49.26
19795;BME280;10057;59.402;17.866;2023-05-25T00:42:02;101162.38;;;18.29;49.46
19795;BME280;10057;59.402;17.866;2023-05-25T00:44:29;101162.78;;;18.23;49.64
19795;BME280;10057;59.402;17.866;2023-05-25T00:46:58;101156.13;;;18.14;49.65
19795;BME280;10057;59.402;17.866;2023-05-25T00:49:25;101147.41;;;18.11;49.95
19795;BME280;10057;59.402;17.866;2023-05-25T00:51:53;101153.16;;;18.05;50.12
19795;BME280;10057;59.402;17.866;2023-05-25T00:54:20;101154.31;;;18.00;50.33
19795;BME280;10057;59.402;17.866;2023-05-25T00:56:55;101151.63;;;18.00;50.17
19795;BME280;10057;59.402;17.866;2023-05-25T00:59:32;101145.50;;;17.98;50.41
19795;BME280;10057;59.402;17.866;2023-05-25T01:02:03;101149.91;;;17.99;50.33
19795;BME280;10057;59.402;17.866;2023-05-25T01:04:35;101158.72;;;18.02;50.26
19795;BME280;10057;59.402;17.866;2023-05-25T01:07:04;101145.28;;;18.02;50.24
19795;BME280;10057;59.402;17.866;2023-05-25T01:09:34;101150.94;;;17.97;50.36
19795;BME280;10057;59.402;17.866;2023-05-25T01:12:01;101145.97;;;17.91;50.59
19795;BME280;10057;59.402;17.866;2023-05-25T01:14:30;101144.59;;;17.84;50.88
19795;BME280;10057;59.402;17.866;2023-05-25T01:16:58;101150.34;;;17.77;50.93
19795;BME280;10057;59.402;17.866;2023-05-25T01:19:25;101152.31;;;17.74;50.94
19795;BME280;10057;59.402;17.866;2023-05-25T01:22:01;101148.78;;;17.73;51.02
19795;BME280;10057;59.402;17.866;2023-05-25T01:24:43;101143.59;;;17.70;51.06
19795;BME280;10057;59.402;17.866;2023-05-25T01:29:44;101140.66;;;17.75;51.15
19795;BME280;10057;59.402;17.866;2023-05-25T01:32:12;101133.53;;;17.74;51.38
19795;BME280;10057;59.402;17.866;2023-05-25T01:34:42;101151.38;;;17.75;51.36
19795;BME280;10057;59.402;17.866;2023-05-25T01:37:10;101145.88;;;17.78;51.32
19795;BME280;10057;59.402;17.866;2023-05-25T01:39:42;101150.44;;;17.76;51.30
19795;BME280;10057;59.402;17.866;2023-05-25T01:42:09;101154.06;;;17.75;51.56
19795;BME280;10057;59.402;17.866;2023-05-25T01:44:36;101153.03;;;17.77;51.41
19795;BME280;10057;59.402;17.866;2023-05-25T01:47:26;101151.06;;;17.81;51.46
19795;BME280;10057;59.402;17.866;2023-05-25T01:50:10;101159.19;;;17.80;51.39
19795;BME280;10057;59.402;17.866;2023-05-25T01:52:42;101156.94;;;17.72;51.48
19795;BME280;10057;59.402;17.866;2023-05-25T01:55:11;101162.84;;;17.63;51.79
19795;BME280;10057;59.402;17.866;2023-05-25T01:57:42;101150.06;;;17.52;52.11
19795;BME280;10057;59.402;17.866;2023-05-25T02:00:11;101156.84;;;17.43;52.24
19795;BME280;10057;59.402;17.866;2023-05-25T02:02:41;101157.91;;;17.41;52.25
19795;BME280;10057;59.402;17.866;2023-05-25T02:05:09;101165.84;;;17.42;52.56
19795;BME280;10057;59.402;17.866;2023-05-25T02:07:37;101160.75;;;17.38;52.43
19795;BME280;10057;59.402;17.866;2023-05-25T02:10:04;101164.41;;;17.37;52.72
19795;BME280;10057;59.402;17.866;2023-05-25T02:12:30;101170.69;;;17.36;52.70
19795;BME280;10057;59.402;17.866;2023-05-25T02:14:57;101170.81;;;17.34;53.02
19795;BME280;10057;59.402;17.866;2023-05-25T02:17:24;101164.66;;;17.32;52.95
19795;BME280;10057;59.402;17.866;2023-05-25T02:19:53;101162.09;;;17.31;53.17
19795;BME280;10057;59.402;17.866;2023-05-25T02:22:21;101157.66;;;17.29;53.05
19795;BME280;10057;59.402;17.866;2023-05-25T02:24:48;101161.22;;;17.30;53.07
19795;BME280;10057;59.402;17.866;2023-05-25T02:27:14;101156.63;;;17.32;52.96
19795;BME280;10057;59.402;17.866;2023-05-25T02:29:41;101160.16;;;17.33;53.12
19795;BME280;10057;59.402;17.866;2023-05-25T02:32:08;101163.91;;;17.30;53.01
19795;BME280;10057;59.402;17.866;2023-05-25T02:34:35;101156.22;;;17.24;53.19
19795;BME280;10057;59.402;17.866;2023-05-25T02:37:01;101172.38;;;17.22;53.23
19795;BME280;10057;59.402;17.866;2023-05-25T02:39:28;101175.16;;;17.21;53.22
19795;BME280;10057;59.402;17.866;2023-05-25T02:41:55;101174.53;;;17.16;53.41
19795;BME280;10057;59.402;17.866;2023-05-25T02:44:21;101161.31;;;17.13;53.53
19795;BME280;10057;59.402;17.866;2023-05-25T02:46:48;101165.91;;;17.11;53.69
19795;BME280;10057;59.402;17.866;2023-05-25T02:49:15;101183.91;;;17.09;53.77
19795;BME280;10057;59.402;17.866;2023-05-25T02:51:42;101164.72;;;17.00;53.76
19795;BME280;10057;59.402;17.866;2023-05-25T02:54:08;101177.50;;;16.95;53.96
19795;BME280;10057;59.402;17.866;2023-05-25T02:56:35;101175.94;;;16.91;54.15
19795;BME280;10057;59.402;17.866;2023-05-25T02:59:02;101175.19;;;16.89;54.00
19795;BME280;10057;59.402;17.866;2023-05-25T03:01:29;101184.16;;;16.88;54.37
19795;BME280;10057;59.402;17.866;2023-05-25T03:03:57;101193.34;;;16.84;54.15
19795;BME280;10057;59.402;17.866;2023-05-25T03:06:24;101182.63;;;16.84;54.18
19795;BME280;10057;59.402;17.866;2023-05-25T03:08:51;101185.97;;;16.88;54.15
19795;BME280;10057;59.402;17.866;2023-05-25T03:11:18;101189.53;;;16.88;54.45
19795;BME280;10057;59.402;17.866;2023-05-25T03:13:45;101183.56;;;16.83;54.16
19795;BME280;10057;59.402;17.866;2023-05-25T03:16:11;101181.22;;;16.77;54.47
19795;BME280;10057;59.402;17.866;2023-05-25T03:18:38;101187.75;;;16.71;54.62
19795;BME280;10057;59.402;17.866;2023-05-25T03:21:05;101186.31;;;16.66;54.88
19795;BME280;10057;59.402;17.866;2023-05-25T03:23:32;101181.97;;;16.63;54.89
19795;BME280;10057;59.402;17.866;2023-05-25T03:25:58;101166.94;;;16.61;55.12
19795;BME280;10057;59.402;17.866;2023-05-25T03:28:25;101172.44;;;16.57;55.10
19795;BME280;10057;59.402;17.866;2023-05-25T03:30:52;101169.00;;;16.55;55.11
19795;BME280;10057;59.402;17.866;2023-05-25T03:33:19;101178.19;;;16.51;55.23
19795;BME280;10057;59.402;17.866;2023-05-25T03:35:45;101176.41;;;16.50;55.21
19795;BME280;10057;59.402;17.866;2023-05-25T03:38:12;101186.09;;;16.53;55.23
19795;BME280;10057;59.402;17.866;2023-05-25T03:40:39;101181.63;;;16.53;55.12
19795;BME280;10057;59.402;17.866;2023-05-25T03:43:05;101189.56;;;16.55;55.18
19795;BME280;10057;59.402;17.866;2023-05-25T03:45:32;101196.97;;;16.50;55.33
19795;BME280;10057;59.402;17.866;2023-05-25T03:47:59;101189.97;;;16.47;55.39
19795;BME280;10057;59.402;17.866;2023-05-25T03:50:26;101185.75;;;16.43;55.43
19795;BME280;10057;59.402;17.866;2023-05-25T03:52:53;101184.09;;;16.41;55.61
19795;BME280;10057;59.402;17.866;2023-05-25T03:55:19;101193.25;;;16.37;55.62
19795;BME280;10057;59.402;17.866;2023-05-25T03:57:46;101197.03;;;16.32;55.76
19795;BME280;10057;59.402;17.866;2023-05-25T04:00:13;101188.16;;;16.32;55.86
19795;BME280;10057;59.402;17.866;2023-05-25T04:02:40;101194.53;;;16.29;55.91
19795;BME280;10057;59.402;17.866;2023-05-25T04:05:07;101191.78;;;16.31;55.97
19795;BME280;10057;59.402;17.866;2023-05-25T04:07:34;101188.47;;;16.26;55.87
19795;BME280;10057;59.402;17.866;2023-05-25T04:10:03;101194.69;;;16.26;56.06
19795;BME280;10057;59.402;17.866;2023-05-25T04:12:30;101202.97;;;16.22;56.11
19795;BME280;10057;59.402;17.866;2023-05-25T04:14:57;101198.81;;;16.16;56.12
19795;BME280;10057;59.402;17.866;2023-05-25T04:17:24;101204.25;;;16.15;56.19
19795;BME280;10057;59.402;17.866;2023-05-25T04:19:51;101206.13;;;16.13;56.33
19795;BME280;10057;59.402;17.866;2023-05-25T04:22:18;101217.63;;;16.15;56.53
19795;BME280;10057;59.402;17.866;2023-05-25T04:24:45;101210.38;;;16.17;56.41
19795;BME280;10057;59.402;17.866;2023-05-25T04:27:12;101213.84;;;16.19;56.65
19795;BME280;10057;59.402;17.866;2023-05-25T04:29:42;101220.00;;;16.21;56.63
19795;BME280;10057;59.402;17.866;2023-05-25T04:32:09;101221.97;;;16.17;56.62
19795;BME280;10057;59.402;17.866;2023-05-25T04:34:36;101224.88;;;16.13;56.77
19795;BME280;10057;59.402;17.866;2023-05-25T04:37:03;101228.66;;;16.08;57.01
19795;BME280;10057;59.402;17.866;2023-05-25T04:39:31;101224.47;;;16.03;57.11
19795;BME280;10057;59.402;17.866;2023-05-25T04:41:58;101225.38;;;16.03;57.28
19795;BME280;10057;59.402;17.866;2023-05-25T04:44:27;101234.16;;;16.05;57.15
19795;BME280;10057;59.402;17.866;2023-05-25T04:46:55;101233.16;;;16.08;57.04
19795;BME280;10057;59.402;17.866;2023-05-25T04:49:22;101243.59;;;16.13;56.94
19795;BME280;10057;59.402;17.866;2023-05-25T04:51:49;101230.22;;;16.13;56.97
19795;BME280;10057;59.402;17.866;2023-05-25T04:54:17;101235.41;;;16.16;57.09
19795;BME280;10057;59.402;17.866;2023-05-25T04:56:43;101242.41;;;16.18;57.28
19795;BME280;10057;59.402;17.866;2023-05-25T04:59:10;101248.72;;;16.17;57.46
19795;BME280;10057;59.402;17.866;2023-05-25T05:01:37;101241.72;;;16.15;57.49
19795;BME280;10057;59.402;17.866;2023-05-25T05:04:07;101242.84;;;16.10;57.59
19795;BME280;10057;59.402;17.866;2023-05-25T05:06:34;101239.19;;;16.11;57.58
19795;BME280;10057;59.402;17.866;2023-05-25T05:09:02;101246.97;;;16.16;57.54
19795;BME280;10057;59.402;17.866;2023-05-25T05:11:29;101235.25;;;16.19;57.59
19795;BME280;10057;59.402;17.866;2023-05-25T05:13:55;101236.81;;;16.23;57.53
19795;BME280;10057;59.402;17.866;2023-05-25T05:16:22;101236.38;;;16.15;57.53
19795;BME280;10057;59.402;17.866;2023-05-25T05:18:49;101237.13;;;16.17;57.77
19795;BME280;10057;59.402;17.866;2023-05-25T05:21:16;101249.44;;;16.21;57.77
19795;BME280;10057;59.402;17.866;2023-05-25T05:23:42;101249.19;;;16.25;57.68
19795;BME280;10057;59.402;17.866;2023-05-25T05:26:10;101239.28;;;16.27;57.80
19795;BME280;10057;59.402;17.866;2023-05-25T05:28:37;101253.53;;;16.28;57.69
19795;BME280;10057;59.402;17.866;2023-05-25T05:31:03;101254.44;;;16.27;57.87
19795;BME280;10057;59.402;17.866;2023-05-25T05:33:30;101264.38;;;16.25;58.00
19795;BME280;10057;59.402;17.866;2023-05-25T05:35:58;101258.88;;;16.28;58.23
19795;BME280;10057;59.402;17.866;2023-05-25T05:38:26;101259.03;;;16.25;58.12
19795;BME280;10057;59.402;17.866;2023-05-25T05:40:53;101259.09;;;16.23;58.05
19795;BME280;10057;59.402;17.866;2023-05-25T05:43:19;101270.59;;;16.25;58.40
19795;BME280;10057;59.402;17.866;2023-05-25T05:45:46;101272.25;;;16.28;58.11
19795;BME280;10057;59.402;17.866;2023-05-25T05:48:13;101269.41;;;16.31;57.93
19795;BME280;10057;59.402;17.866;2023-05-25T05:50:39;101263.81;;;16.35;57.83
19795;BME280;10057;59.402;17.866;2023-05-25T05:53:07;101267.78;;;16.44;57.58
19795;BME280;10057;59.402;17.866;2023-05-25T05:55:35;101274.59;;;16.51;57.03
19795;BME280;10057;59.402;17.866;2023-05-25T05:58:02;101274.22;;;16.57;56.62
19795;BME280;10057;59.402;17.866;2023-05-25T06:00:29;101282.03;;;16.62;56.04
19795;BME280;10057;59.402;17.866;2023-05-25T06:02:55;101293.13;;;16.72;55.99
19795;BME280;10057;59.402;17.866;2023-05-25T06:05:22;101292.47;;;16.84;54.56
19795;BME280;10057;59.402;17.866;2023-05-25T06:07:49;101291.34;;;16.88;54.50
19795;BME280;10057;59.402;17.866;2023-05-25T06:10:17;101303.28;;;16.98;53.95
19795;BME280;10057;59.402;17.866;2023-05-25T06:12:43;101305.81;;;17.01;53.74
19795;BME280;10057;59.402;17.866;2023-05-25T06:15:10;101321.56;;;17.08;53.55
19795;BME280;10057;59.402;17.866;2023-05-25T06:17:37;101321.28;;;17.12;52.88
19795;BME280;10057;59.402;17.866;2023-05-25T06:20:04;101324.84;;;17.13;52.90
19795;BME280;10057;59.402;17.866;2023-05-25T06:22:32;101340.00;;;17.14;52.27
19795;BME280;10057;59.402;17.866;2023-05-25T06:24:58;101331.94;;;17.14;51.81
19795;BME280;10057;59.402;17.866;2023-05-25T06:27:27;101346.06;;;17.17;51.42
19795;BME280;10057;59.402;17.866;2023-05-25T06:29:54;101340.59;;;17.19;50.97
19795;BME280;10057;59.402;17.866;2023-05-25T06:32:21;101352.00;;;17.22;50.72
19795;BME280;10057;59.402;17.866;2023-05-25T06:34:47;101352.16;;;17.19;50.56
19795;BME280;10057;59.402;17.866;2023-05-25T06:37:14;101359.34;;;17.19;50.32
19795;BME280;10057;59.402;17.866;2023-05-25T06:39:41;101365.03;;;17.13;50.41
19795;BME280;10057;59.402;17.866;2023-05-25T06:42:09;101359.88;;;17.10;50.49
19795;BME280;10057;59.402;17.866;2023-05-25T06:44:37;101367.03;;;17.09;50.39
19795;BME280;10057;59.402;17.866;2023-05-25T06:47:03;101369.72;;;17.09;50.17
19795;BME280;10057;59.402;17.866;2023-05-25T06:49:31;101363.31;;;17.12;50.22
19795;BME280;10057;59.402;17.866;2023-05-25T06:51:58;101369.47;;;17.14;50.39
19795;BME280;10057;59.402;17.866;2023-05-25T06:54:24;101375.44;;;17.19;50.11
19795;BME280;10057;59.402;17.866;2023-05-25T06:56:52;101368.94;;;17.23;49.84
19795;BME280;10057;59.402;17.866;2023-05-25T06:59:18;101386.84;;;17.22;49.58
19795;BME280;10057;59.402;17.866;2023-05-25T07:01:45;101386.78;;;17.24;49.12
19795;BME280;10057;59.402;17.866;2023-05-25T07:04:13;101400.44;;;17.19;48.78
19795;BME280;10057;59.402;17.866;2023-05-25T07:06:39;101390.94;;;17.14;48.82
19795;BME280;10057;59.402;17.866;2023-05-25T07:09:06;101393.59;;;17.14;48.64
19795;BME280;10057;59.402;17.866;2023-05-25T07:11:33;101403.22;;;17.18;48.01
19795;BME280;10057;59.402;17.866;2023-05-25T07:14:00;101400.38;;;17.21;47.86
19795;BME280;10057;59.402;17.866;2023-05-25T07:16:26;101407.28;;;17.25;47.73
19795;BME280;10057;59.402;17.866;2023-05-25T07:18:53;101412.38;;;17.29;47.49
19795;BME280;10057;59.402;17.866;2023-05-25T07:21:20;101406.97;;;17.31;46.76
19795;BME280;10057;59.402;17.866;2023-05-25T07:23:47;101416.13;;;17.27;46.91
19795;BME280;10057;59.402;17.866;2023-05-25T07:26:13;101401.84;;;17.26;46.61
19795;BME280;10057;59.402;17.866;2023-05-25T07:28:41;101407.81;;;17.32;46.52
19795;BME280;10057;59.402;17.866;2023-05-25T07:31:09;101406.00;;;17.32;46.08
19795;BME280;10057;59.402;17.866;2023-05-25T07:33:36;101412.66;;;17.25;46.24
19795;BME280;10057;59.402;17.866;2023-05-25T07:36:03;101418.16;;;17.22;45.91
19795;BME280;10057;59.402;17.866;2023-05-25T07:38:30;101417.22;;;17.23;45.89
19795;BME280;10057;59.402;17.866;2023-05-25T07:40:56;101420.53;;;17.28;45.89
19795;BME280;10057;59.402;17.866;2023-05-25T07:43:23;101427.56;;;17.31;45.67
19795;BME280;10057;59.402;17.866;2023-05-25T07:45:50;101429.91;;;17.37;45.76
19795;BME280;10057;59.402;17.866;2023-05-25T07:48:17;101436.88;;;17.39;45.34
19795;BME280;10057;59.402;17.866;2023-05-25T07:50:44;101446.50;;;17.43;45.27
19795;BME280;10057;59.402;17.866;2023-05-25T07:53:11;101448.09;;;17.47;45.26
19795;BME280;10057;59.402;17.866;2023-05-25T07:55:38;101460.19;;;17.55;44.87
19795;BME280;10057;59.402;17.866;2023-05-25T07:58:04;101457.25;;;17.59;44.74
19795;BME280;10057;59.402;17.866;2023-05-25T08:00:32;101457.09;;;17.62;44.71
19795;BME280;10057;59.402;17.866;2023-05-25T08:02:59;101471.09;;;17.67;44.65
19795;BME280;10057;59.402;17.866;2023-05-25T08:05:28;101474.50;;;17.71;44.35
19795;BME280;10057;59.402;17.866;2023-05-25T08:07:55;101463.44;;;17.77;44.53
19795;BME280;10057;59.402;17.866;2023-05-25T08:10:21;101476.53;;;17.83;44.23
19795;BME280;10057;59.402;17.866;2023-05-25T08:12:49;101477.91;;;17.90;44.06
19795;BME280;10057;59.402;17.866;2023-05-25T08:15:18;101495.41;;;17.97;44.06
19795;BME280;10057;59.402;17.866;2023-05-25T08:17:44;101498.59;;;18.04;43.92
19795;BME280;10057;59.402;17.866;2023-05-25T08:20:13;101501.66;;;18.14;43.47
19795;BME280;10057;59.402;17.866;2023-05-25T08:22:39;101504.94;;;18.19;43.53
19795;BME280;10057;59.402;17.866;2023-05-25T08:25:06;101509.19;;;18.23;43.13
19795;BME280;10057;59.402;17.866;2023-05-25T08:27:34;101504.56;;;18.25;43.30
19795;BME280;10057;59.402;17.866;2023-05-25T08:30:05;101504.41;;;18.28;42.87
19795;BME280;10057;59.402;17.866;2023-05-25T08:32:32;101515.75;;;18.33;42.74
19795;BME280;10057;59.402;17.866;2023-05-25T08:34:59;101513.66;;;18.38;42.62
19795;BME280;10057;59.402;17.866;2023-05-25T08:37:27;101506.28;;;18.42;42.30
19795;BME280;10057;59.402;17.866;2023-05-25T08:39:54;101506.13;;;18.45;42.02
19795;BME280;10057;59.402;17.866;2023-05-25T08:42:21;101504.09;;;18.48;41.90
19795;BME280;10057;59.402;17.866;2023-05-25T08:44:49;101506.56;;;18.53;41.80
19795;BME280;10057;59.402;17.866;2023-05-25T08:47:16;101508.97;;;18.58;41.97
19795;BME280;10057;59.402;17.866;2023-05-25T08:49:43;101509.53;;;18.63;41.67
19795;BME280;10057;59.402;17.866;2023-05-25T08:52:13;101502.88;;;18.70;41.66
19795;BME280;10057;59.402;17.866;2023-05-25T08:54:42;101500.91;;;18.74;41.56
19795;BME280;10057;59.402;17.866;2023-05-25T08:57:21;101505.38;;;18.73;41.34
19795;BME280;10057;59.402;17.866;2023-05-25T08:59:54;101519.78;;;18.72;41.42
19795;BME280;10057;59.402;17.866;2023-05-25T09:05:19;101527.13;;;18.68;40.62
19795;BME280;10057;59.402;17.866;2023-05-25T09:07:46;101524.69;;;18.50;40.68
19795;BME280;10057;59.402;17.866;2023-05-25T09:10:14;101538.19;;;18.48;40.94
19795;BME280;10057;59.402;17.866;2023-05-25T09:12:41;101540.78;;;18.50;40.99
19795;BME280;10057;59.402;17.866;2023-05-25T09:15:09;101540.59;;;18.53;40.94
19795;BME280;10057;59.402;17.866;2023-05-25T09:17:36;101551.84;;;18.59;40.86
19795;BME280;10057;59.402;17.866;2023-05-25T09:20:04;101545.38;;;18.63;40.86
19795;BME280;10057;59.402;17.866;2023-05-25T09:22:31;101556.69;;;18.68;40.52
19795;BME280;10057;59.402;17.866;2023-05-25T09:24:58;101556.28;;;18.76;40.51
19795;BME280;10057;59.402;17.866;2023-05-25T09:27:25;101558.53;;;18.84;40.32
19795;BME280;10057;59.402;17.866;2023-05-25T09:29:52;101552.00;;;18.88;40.01
19795;BME280;10057;59.402;17.866;2023-05-25T09:32:19;101561.69;;;18.90;40.09
19795;BME280;10057;59.402;17.866;2023-05-25T09:34:46;101561.16;;;19.00;40.35
19795;BME280;10057;59.402;17.866;2023-05-25T09:37:16;101547.16;;;19.09;40.35
19795;BME280;10057;59.402;17.866;2023-05-25T09:39:45;101552.19;;;19.15;39.80
19795;BME280;10057;59.402;17.866;2023-05-25T09:42:13;101563.63;;;19.18;39.80
19795;BME280;10057;59.402;17.866;2023-05-25T09:44:40;101564.69;;;19.30;39.41
19795;BME280;10057;59.402;17.866;2023-05-25T09:47:08;101564.31;;;19.36;39.25
19795;BME280;10057;59.402;17.866;2023-05-25T09:49:35;101558.56;;;19.42;39.24
19795;BME280;10057;59.402;17.866;2023-05-25T09:52:02;101567.81;;;19.53;39.08
19795;BME280;10057;59.402;17.866;2023-05-25T09:54:29;101567.31;;;19.60;38.89
19795;BME280;10057;59.402;17.866;2023-05-25T09:56:56;101572.59;;;19.62;38.74
19795;BME280;10057;59.402;17.866;2023-05-25T09:59:23;101575.81;;;19.69;38.66
19795;BME280;10057;59.402;17.866;2023-05-25T10:01:50;101577.81;;;19.79;38.54
19795;BME280;10057;59.402;17.866;2023-05-25T10:04:20;101581.13;;;19.84;38.04
19795;BME280;10057;59.402;17.866;2023-05-25T10:06:47;101579.94;;;19.88;37.94
19795;BME280;10057;59.402;17.866;2023-05-25T10:09:18;101582.16;;;19.96;37.86
19795;BME280;10057;59.402;17.866;2023-05-25T10:11:46;101579.94;;;20.03;37.71
19795;BME280;10057;59.402;17.866;2023-05-25T10:14:21;101589.06;;;20.15;37.62
19795;BME280;10057;59.402;17.866;2023-05-25T10:16:56;101585.22;;;20.19;37.24
19795;BME280;10057;59.402;17.866;2023-05-25T10:19:35;101586.19;;;20.18;36.59
19795;BME280;10057;59.402;17.866;2023-05-25T10:22:09;101586.47;;;20.13;36.87
19795;BME280;10057;59.402;17.866;2023-05-25T10:27:23;101594.16;;;20.19;36.35
19795;BME280;10057;59.402;17.866;2023-05-25T10:29:55;101585.22;;;20.19;36.40
19795;BME280;10057;59.402;17.866;2023-05-25T10:32:23;101593.50;;;20.16;36.31
19795;BME280;10057;59.402;17.866;2023-05-25T10:34:51;101582.16;;;20.10;36.30
19795;BME280;10057;59.402;17.866;2023-05-25T10:37:18;101590.41;;;20.22;36.89
19795;BME280;10057;59.402;17.866;2023-05-25T10:39:46;101580.38;;;20.38;36.38
19795;BME280;10057;59.402;17.866;2023-05-25T10:42:17;101568.13;;;20.47;36.26
19795;BME280;10057;59.402;17.866;2023-05-25T10:44:44;101574.47;;;20.60;35.73
19795;BME280;10057;59.402;17.866;2023-05-25T10:47:11;101582.75;;;20.57;35.41
19795;BME280;10057;59.402;17.866;2023-05-25T10:49:58;101581.59;;;20.47;35.23
19795;BME280;10057;59.402;17.866;2023-05-25T10:52:29;101587.41;;;20.26;35.19
19795;BME280;10057;59.402;17.866;2023-05-25T10:54:58;101579.31;;;20.26;35.34
19795;BME280;10057;59.402;17.866;2023-05-25T10:57:27;101582.97;;;20.40;35.54
19795;BME280;10057;59.402;17.866;2023-05-25T11:00:00;101576.19;;;20.61;35.12
19795;BME280;10057;59.402;17.866;2023-05-25T11:02:28;101582.50;;;20.74;34.90
19795;BME280;10057;59.402;17.866;2023-05-25T11:07:56;101581.28;;;20.93;34.47
19795;BME280;10057;59.402;17.866;2023-05-25T11:10:52;101586.50;;;20.81;34.02
19795;BME280;10057;59.402;17.866;2023-05-25T11:13:34;101572.44;;;20.64;33.99
19795;BME280;10057;59.402;17.866;2023-05-25T11:19:00;101584.66;;;20.69;34.67
19795;BME280;10057;59.402;17.866;2023-05-25T11:23:59;101581.56;;;20.88;34.30
19795;BME280;10057;59.402;17.866;2023-05-25T11:26:29;101581.69;;;20.87;34.11
19795;BME280;10057;59.402;17.866;2023-05-25T11:28:57;101587.47;;;20.80;33.97
19795;BME280;10057;59.402;17.866;2023-05-25T11:31:31;101583.88;;;20.67;33.74
19795;BME280;10057;59.402;17.866;2023-05-25T11:34:04;101584.59;;;20.56;33.81
19795;BME280;10057;59.402;17.866;2023-05-25T11:36:33;101581.78;;;20.58;34.08
19795;BME280;10057;59.402;17.866;2023-05-25T11:39:03;101575.31;;;20.61;33.99
19795;BME280;10057;59.402;17.866;2023-05-25T11:41:51;101577.47;;;20.55;33.60
19795;BME280;10057;59.402;17.866;2023-05-25T11:44:28;101583.16;;;20.51;33.62
19795;BME280;10057;59.402;17.866;2023-05-25T11:46:56;101573.34;;;20.35;33.41
19795;BME280;10057;59.402;17.866;2023-05-25T11:49:27;101577.81;;;20.22;33.85
19795;BME280;10057;59.402;17.866;2023-05-25T11:51:56;101586.28;;;20.16;33.47
19795;BME280;10057;59.402;17.866;2023-05-25T11:54:27;101593.41;;;20.03;33.90
19795;BME280;10057;59.402;17.866;2023-05-25T11:56:55;101591.84;;;20.13;34.31
19795;BME280;10057;59.402;17.866;2023-05-25T11:59:25;101586.91;;;20.34;34.18
19795;BME280;10057;59.402;17.866;2023-05-25T12:01:58;101587.09;;;20.59;34.04
19795;BME280;10057;59.402;17.866;2023-05-25T12:04:25;101588.53;;;20.51;33.22
19795;BME280;10057;59.402;17.866;2023-05-25T12:06:52;101588.63;;;20.49;33.05
19795;BME280;10057;59.402;17.866;2023-05-25T12:09:20;101584.53;;;20.71;33.45
19795;BME280;10057;59.402;17.866;2023-05-25T12:11:49;101589.91;;;20.98;33.29
19795;BME280;10057;59.402;17.866;2023-05-25T12:14:17;101581.22;;;21.20;32.84
19795;BME280;10057;59.402;17.866;2023-05-25T12:16:44;101575.09;;;21.30;32.55
19795;BME280;10057;59.402;17.866;2023-05-25T12:19:11;101571.53;;;21.30;32.10
19795;BME280;10057;59.402;17.866;2023-05-25T12:21:39;101573.34;;;21.29;31.91
19795;BME280;10057;59.402;17.866;2023-05-25T12:24:08;101568.81;;;21.17;31.16
19795;BME280;10057;59.402;17.866;2023-05-25T12:26:46;101567.28;;;21.13;31.90
19795;BME280;10057;59.402;17.866;2023-05-25T12:29:13;101579.38;;;21.33;32.37
19795;BME280;10057;59.402;17.866;2023-05-25T12:31:40;101581.50;;;21.55;32.53
19795;BME280;10057;59.402;17.866;2023-05-25T12:34:12;101572.09;;;21.73;31.91
19795;BME280;10057;59.402;17.866;2023-05-25T12:36:42;101576.63;;;21.98;31.55
19795;BME280;10057;59.402;17.866;2023-05-25T12:39:10;101583.53;;;22.15;31.27
19795;BME280;10057;59.402;17.866;2023-05-25T12:41:46;101578.50;;;22.35;31.49
19795;BME280;10057;59.402;17.866;2023-05-25T12:46:43;101580.34;;;22.82;30.57
19795;BME280;10057;59.402;17.866;2023-05-25T12:49:29;101572.41;;;22.92;30.53
19795;BME280;10057;59.402;17.866;2023-05-25T12:51:59;101578.63;;;23.05;29.89
19795;BME280;10057;59.402;17.866;2023-05-25T12:57:04;101573.41;;;22.91;29.80
19795;BME280;10057;59.402;17.866;2023-05-25T12:59:33;101577.81;;;22.92;29.77
19795;BME280;10057;59.402;17.866;2023-05-25T13:02:01;101578.47;;;22.96;29.84
19795;BME280;10057;59.402;17.866;2023-05-25T13:04:28;101575.41;;;23.00;29.78
19795;BME280;10057;59.402;17.866;2023-05-25T13:06:55;101588.44;;;22.95;29.86